createdAt,value
2018-04-28T00:01:20.729Z,69.60
2018-04-28T00:03:46.605Z,69.03
2018-04-28T00:06:12.497Z,69.31
2018-04-28T00:08:38.394Z,69.11
2018-04-28T00:11:04.261Z,69.22
2018-04-28T00:13:31.037Z,69.03
2018-04-28T00:16:01.619Z,69.41
2018-04-28T00:18:27.508Z,71.03
2018-04-28T00:20:53.386Z,71.34
2018-04-28T00:23:19.261Z,73.50
2018-04-28T00:25:45.161Z,74.11
2018-04-28T00:28:11.000Z,74.68
2018-04-28T00:30:40.825Z,71.39
2018-04-28T00:33:14.636Z,71.21
2018-04-28T00:35:40.749Z,70.49
2018-04-28T00:38:06.667Z,70.21
2018-04-28T00:40:35.352Z,70.17
2018-04-28T00:43:01.212Z,70.69
2018-04-28T00:45:28.805Z,70.64
2018-04-28T00:47:54.656Z,70.40
2018-04-28T00:50:34.271Z,70.70
2018-04-28T00:53:00.126Z,69.76
2018-04-28T00:55:38.836Z,69.68
2018-04-28T01:01:28.138Z,69.03
2018-04-28T01:04:01.753Z,69.32
2018-04-28T01:06:27.649Z,71.70
2018-04-28T01:08:56.361Z,71.92
2018-04-28T01:11:24.072Z,72.28
2018-04-28T01:13:52.782Z,72.33
2018-04-28T01:16:18.728Z,71.48
2018-04-28T01:21:44.320Z,69.68
2018-04-28T01:24:25.962Z,69.95
2018-04-28T01:30:10.130Z,71.19
2018-04-28T01:35:46.803Z,72.08
2018-04-28T01:38:13.469Z,77.09
2018-04-28T01:40:39.324Z,75.31
2018-04-28T01:43:14.304Z,73.10
2018-04-28T01:45:50.128Z,72.46
2018-04-28T01:48:17.918Z,72.46
2018-04-28T01:50:43.805Z,72.62
2018-04-28T01:53:09.754Z,72.83
2018-04-28T01:55:37.249Z,73.41
2018-04-28T01:58:06.005Z,72.99
2018-04-28T02:00:44.000Z,73.21
2018-04-28T02:03:10.732Z,73.55
2018-04-28T02:05:41.360Z,75.84
2018-04-28T02:08:08.296Z,76.85
2018-04-28T02:10:38.921Z,75.61
2018-04-28T02:13:06.664Z,75.22
2018-04-28T02:15:34.577Z,74.40
2018-04-28T02:20:56.266Z,74.37
2018-04-28T02:23:29.064Z,74.02
2018-04-28T02:25:56.889Z,74.97
2018-04-28T02:31:26.569Z,74.10
2018-04-28T02:33:52.500Z,73.65
2018-04-28T02:36:19.227Z,73.47
2018-04-28T02:38:45.117Z,73.38
2018-04-28T02:44:29.750Z,73.86
2018-04-28T02:46:57.521Z,74.57
2018-04-28T02:49:54.309Z,74.82
2018-04-28T02:52:21.175Z,73.94
2018-04-28T02:54:50.785Z,73.52
2018-04-28T02:57:25.693Z,73.75
2018-04-28T02:59:57.616Z,74.09
2018-04-28T03:02:30.280Z,73.95
2018-04-28T03:04:56.956Z,74.26
2018-04-28T03:10:26.664Z,74.99
2018-04-28T03:12:52.562Z,74.69
2018-04-28T03:15:18.428Z,74.39
2018-04-28T03:17:59.272Z,74.57
2018-04-28T03:20:25.913Z,75.39
2018-04-28T03:22:56.642Z,75.95
2018-04-28T03:25:25.536Z,75.92
2018-04-28T03:28:00.284Z,76.27
2018-04-28T03:30:26.169Z,75.74
2018-04-28T03:32:52.033Z,75.62
2018-04-28T03:35:18.931Z,75.86
2018-04-28T03:37:46.832Z,75.94
2018-04-28T03:40:16.596Z,75.80
2018-04-28T03:42:48.482Z,77.31
2018-04-28T03:45:14.340Z,79.02
2018-04-28T03:47:48.125Z,80.70
2018-04-28T03:50:25.913Z,80.64
2018-04-28T03:52:51.810Z,80.56
2018-04-28T03:55:17.672Z,80.68
2018-04-28T03:57:55.816Z,81.12
2018-04-28T04:00:33.834Z,79.92
2018-04-28T04:03:19.540Z,79.43
2018-04-28T04:05:57.766Z,78.79
2018-04-28T04:08:23.623Z,78.11
2018-04-28T04:10:58.369Z,76.98
2018-04-28T04:13:36.430Z,77.00
2018-04-28T04:16:05.058Z,77.43
2018-04-28T04:18:41.106Z,77.06
2018-04-28T04:24:30.366Z,75.92
2018-04-28T04:27:11.021Z,77.23
2018-04-28T04:29:43.884Z,77.46
2018-04-28T04:32:14.548Z,78.91
2018-04-28T04:37:54.905Z,78.33
2018-04-28T04:40:41.736Z,78.33
2018-04-28T04:43:17.468Z,78.57
2018-04-28T04:45:52.302Z,79.56
2018-04-28T04:48:18.168Z,79.15
2018-04-28T04:50:55.309Z,78.80
2018-04-28T04:53:23.874Z,77.82
2018-04-28T04:55:59.841Z,77.15
2018-04-28T04:58:30.638Z,77.45
2018-04-28T05:01:18.405Z,77.37
2018-04-28T05:03:51.322Z,76.41
2018-04-28T05:06:26.328Z,76.30
2018-04-28T05:12:03.203Z,76.39
2018-04-28T05:17:54.880Z,73.74
2018-04-28T05:23:39.393Z,72.51
2018-04-28T05:26:17.299Z,71.95
2018-04-28T05:28:50.052Z,71.89
2018-04-28T05:31:25.871Z,70.84
2018-04-28T05:34:04.880Z,70.00
2018-04-28T05:36:42.833Z,69.36
2018-04-28T05:39:20.897Z,68.77
2018-04-28T05:41:57.129Z,68.64
2018-04-28T05:47:28.481Z,68.13
2018-04-28T05:53:15.083Z,68.34
2018-04-28T05:59:06.640Z,66.71
2018-04-28T06:04:48.032Z,66.26
2018-04-28T06:10:15.529Z,63.47
2018-04-28T06:13:00.320Z,63.32
2018-04-28T06:15:27.912Z,61.52
2018-04-28T06:20:58.705Z,60.62
2018-04-28T06:23:24.597Z,60.15
2018-04-28T06:25:50.452Z,57.56
2018-04-28T06:28:16.293Z,57.15
2018-04-28T06:30:42.173Z,56.62
2018-04-28T06:33:08.048Z,56.68
2018-04-28T06:35:33.969Z,56.52
2018-04-28T06:37:59.847Z,56.51
2018-04-28T06:40:25.733Z,56.41
2018-04-28T06:42:51.569Z,56.23
2018-04-28T06:45:17.449Z,55.83
2018-04-28T06:47:43.320Z,56.30
2018-04-28T06:50:09.232Z,56.53
2018-04-28T06:52:35.116Z,56.64
2018-04-28T06:55:00.998Z,56.72
2018-04-28T06:57:26.864Z,55.09
2018-04-28T06:59:52.841Z,54.89
2018-04-28T07:02:18.733Z,54.01
2018-04-28T07:04:44.600Z,54.24
2018-04-28T07:07:10.482Z,54.67
2018-04-28T07:09:36.336Z,53.58
2018-04-28T07:12:02.208Z,53.71
2018-04-28T07:14:28.093Z,53.45
2018-04-28T07:16:53.970Z,53.17
2018-04-28T07:19:19.833Z,53.99
2018-04-28T07:21:45.722Z,53.77
2018-04-28T07:24:11.671Z,53.72
2018-04-28T07:26:37.589Z,52.50
2018-04-28T07:29:03.500Z,51.22
2018-04-28T07:31:29.341Z,50.73
2018-04-28T07:33:55.221Z,50.69
2018-04-28T07:36:21.088Z,50.93
2018-04-28T07:38:46.961Z,50.17
2018-04-28T07:41:12.949Z,50.11
2018-04-28T07:43:38.846Z,50.15
2018-04-28T07:46:04.730Z,49.58
2018-04-28T07:48:30.605Z,49.39
2018-04-28T07:50:56.480Z,48.12
2018-04-28T07:53:22.341Z,47.83
2018-04-28T07:55:48.224Z,47.96
2018-04-28T07:58:14.107Z,48.40
2018-04-28T08:00:39.968Z,49.13
2018-04-28T08:03:05.857Z,48.84
2018-04-28T08:05:31.741Z,48.76
2018-04-28T08:07:57.629Z,48.62
2018-04-28T08:10:23.527Z,47.69
2018-04-28T08:12:49.413Z,46.47
2018-04-28T08:15:15.444Z,45.89
2018-04-28T08:17:41.311Z,45.83
2018-04-28T08:20:07.176Z,45.05
2018-04-28T08:22:33.020Z,45.61
2018-04-28T08:24:58.921Z,45.09
2018-04-28T08:27:24.814Z,44.46
2018-04-28T08:29:50.757Z,44.53
2018-04-28T08:32:16.612Z,44.72
2018-04-28T08:34:42.480Z,44.65
2018-04-28T08:37:08.504Z,43.94
2018-04-28T08:39:34.304Z,43.77
2018-04-28T08:42:00.232Z,43.46
2018-04-28T08:44:26.134Z,42.36
2018-04-28T08:46:52.006Z,42.99
2018-04-28T08:49:17.860Z,42.85
2018-04-28T08:51:43.746Z,42.29
2018-04-28T08:54:09.592Z,42.32
2018-04-28T08:56:35.471Z,42.86
2018-04-28T08:59:01.389Z,42.09
2018-04-28T09:01:27.242Z,43.31
2018-04-28T09:03:53.081Z,42.19
2018-04-28T09:06:18.924Z,43.49
2018-04-28T09:08:44.774Z,42.06
2018-04-28T09:11:10.610Z,40.59
2018-04-28T09:13:36.528Z,41.37
2018-04-28T09:16:02.379Z,41.10
2018-04-28T09:18:28.184Z,40.29
2018-04-28T09:20:54.072Z,39.52
2018-04-28T09:23:19.983Z,42.31
2018-04-28T09:25:45.858Z,41.48
2018-04-28T09:28:11.733Z,41.83
2018-04-28T09:30:37.639Z,41.78
2018-04-28T09:33:03.518Z,41.14
2018-04-28T09:35:29.384Z,41.04
2018-04-28T09:37:55.270Z,40.93
2018-04-28T09:40:21.149Z,40.71
2018-04-28T09:42:47.025Z,41.19
2018-04-28T09:45:12.910Z,41.37
2018-04-28T09:47:38.767Z,42.51
2018-04-28T09:50:04.833Z,41.76
2018-04-28T09:52:30.717Z,41.23
2018-04-28T09:54:56.597Z,40.86
2018-04-28T09:57:22.456Z,40.85
2018-04-28T09:59:48.361Z,40.59
2018-04-28T10:02:18.176Z,39.90
2018-04-28T10:04:44.018Z,40.78
2018-04-28T10:07:09.890Z,40.26
2018-04-28T10:09:35.724Z,41.12
2018-04-28T10:12:01.579Z,41.83
2018-04-28T10:14:27.434Z,41.05
2018-04-28T10:16:53.292Z,41.79
2018-04-28T10:19:19.133Z,41.95
2018-04-28T10:21:45.003Z,42.18
2018-04-28T10:24:10.846Z,42.55
2018-04-28T10:26:36.714Z,42.10
2018-04-28T10:29:02.565Z,43.22
2018-04-28T10:31:28.453Z,42.77
2018-04-28T10:33:54.285Z,42.82
2018-04-28T10:36:20.148Z,41.64
2018-04-28T10:38:46.033Z,42.46
2018-04-28T10:41:11.885Z,42.04
2018-04-28T10:43:37.755Z,42.12
2018-04-28T10:46:03.666Z,41.75
2018-04-28T10:48:29.533Z,42.98
2018-04-28T10:50:55.353Z,42.45
2018-04-28T10:53:21.192Z,43.63
2018-04-28T10:55:47.044Z,42.83
2018-04-28T10:58:12.899Z,42.11
2018-04-28T11:00:38.758Z,42.70
2018-04-28T11:03:04.608Z,42.26
2018-04-28T11:05:30.518Z,41.94
2018-04-28T11:07:56.341Z,40.34
2018-04-28T11:10:22.217Z,41.02
2018-04-28T11:12:48.092Z,42.20
2018-04-28T11:15:13.967Z,40.24
2018-04-28T11:17:39.817Z,41.07
2018-04-28T11:20:05.797Z,39.48
2018-04-28T11:22:31.609Z,39.62
2018-04-28T11:24:57.445Z,40.65
2018-04-28T11:27:23.326Z,41.83
2018-04-28T11:29:49.184Z,40.54
2018-04-28T11:32:15.022Z,40.26
2018-04-28T11:34:40.875Z,39.76
2018-04-28T11:37:06.718Z,39.49
2018-04-28T11:39:32.598Z,40.78
2018-04-28T11:41:58.501Z,38.87
2018-04-28T11:44:24.386Z,39.87
2018-04-28T11:46:50.265Z,37.47
2018-04-28T11:49:16.093Z,37.74
2018-04-28T11:51:41.975Z,38.37
2018-04-28T11:54:07.844Z,37.87
2018-04-28T11:56:33.724Z,36.32
2018-04-28T11:58:59.641Z,36.86
2018-04-28T12:01:25.516Z,37.97
2018-04-28T12:03:51.380Z,37.27
2018-04-28T12:06:17.213Z,37.64
2018-04-28T12:08:50.568Z,36.69
2018-04-28T12:11:16.388Z,36.57
2018-04-28T12:13:42.324Z,36.11
2018-04-28T12:16:08.185Z,36.12
2018-04-28T12:18:34.040Z,37.11
2018-04-28T12:20:59.914Z,36.92
2018-04-28T12:23:25.800Z,36.11
2018-04-28T12:25:51.701Z,35.25
2018-04-28T12:28:17.600Z,35.37
2018-04-28T12:30:43.475Z,36.34
2018-04-28T12:33:09.390Z,36.97
2018-04-28T12:35:35.296Z,36.15
2018-04-28T12:38:01.141Z,36.54
2018-04-28T12:40:27.020Z,36.38
2018-04-28T12:42:53.708Z,34.25
2018-04-28T12:45:19.556Z,33.83
2018-04-28T12:47:45.425Z,32.52
2018-04-28T12:50:11.268Z,34.17
2018-04-28T12:52:37.138Z,33.13
2018-04-28T12:55:03.001Z,32.32
2018-04-28T12:57:28.866Z,32.95
2018-04-28T12:59:54.725Z,32.65
2018-04-28T13:02:20.589Z,33.00
2018-04-28T13:04:46.416Z,31.80
2018-04-28T13:07:12.234Z,31.90
2018-04-28T13:09:38.085Z,31.83
2018-04-28T13:12:03.968Z,32.96
2018-04-28T13:14:29.819Z,32.34
2018-04-28T13:16:55.641Z,32.20
2018-04-28T13:19:21.489Z,32.77
2018-04-28T13:21:47.340Z,31.89
2018-04-28T13:24:13.181Z,33.36
2018-04-28T13:26:39.016Z,31.87
2018-04-28T13:29:04.921Z,32.44
2018-04-28T13:31:30.834Z,31.78
2018-04-28T13:33:56.606Z,32.47
2018-04-28T13:36:22.462Z,32.52
2018-04-28T13:38:48.311Z,31.98
2018-04-28T13:41:14.182Z,32.12
2018-04-28T13:43:40.021Z,33.27
2018-04-28T13:46:05.869Z,31.25
2018-04-28T13:48:31.709Z,33.98
2018-04-28T13:50:57.576Z,33.21
2018-04-28T13:53:23.431Z,33.99
2018-04-28T13:55:49.303Z,34.29
2018-04-28T13:58:15.168Z,34.29
2018-04-28T14:00:41.051Z,33.75
2018-04-28T14:03:06.898Z,31.58
2018-04-28T14:05:32.789Z,31.79
2018-04-28T14:07:58.658Z,31.29
2018-04-28T14:10:24.522Z,30.80
2018-04-28T14:12:50.400Z,31.62
2018-04-28T14:15:16.262Z,31.05
2018-04-28T14:17:42.149Z,31.06
2018-04-28T14:20:07.992Z,30.68
2018-04-28T14:22:33.859Z,31.24
2018-04-28T14:24:59.743Z,32.91
2018-04-28T14:27:25.635Z,33.20
2018-04-28T14:29:51.479Z,34.11
2018-04-28T14:32:17.306Z,34.10
2018-04-28T14:34:43.158Z,34.12
2018-04-28T14:37:09.002Z,34.49
2018-04-28T14:39:34.909Z,34.83
2018-04-28T14:42:00.769Z,35.61
2018-04-28T14:44:26.632Z,34.38
2018-04-28T14:46:52.508Z,33.39
2018-04-28T14:49:18.436Z,33.05
2018-04-28T14:51:44.276Z,33.88
2018-04-28T14:54:10.121Z,33.05
2018-04-28T14:56:35.996Z,34.10
2018-04-28T14:59:01.865Z,35.19
2018-04-28T15:01:27.721Z,36.38
2018-04-28T15:03:53.600Z,36.24
2018-04-28T15:06:19.501Z,34.60
2018-04-28T15:08:45.400Z,33.96
2018-04-28T15:11:11.315Z,32.78
2018-04-28T15:13:37.168Z,33.18
2018-04-28T15:16:03.057Z,31.17
2018-04-28T15:18:28.915Z,32.31
2018-04-28T15:20:54.777Z,33.68
2018-04-28T15:23:20.676Z,34.77
2018-04-28T15:25:46.543Z,34.82
2018-04-28T15:28:12.398Z,34.70
2018-04-28T15:30:38.302Z,36.08
2018-04-28T15:33:04.187Z,36.59
2018-04-28T15:35:30.035Z,36.37
2018-04-28T15:37:55.895Z,35.78
2018-04-28T15:40:21.760Z,34.25
2018-04-28T15:42:47.633Z,33.78
2018-04-28T15:45:13.509Z,31.99
2018-04-28T15:47:39.368Z,33.12
2018-04-28T15:50:05.246Z,32.49
2018-04-28T15:52:31.101Z,32.84
2018-04-28T15:54:56.968Z,33.77
2018-04-28T15:57:22.839Z,31.76
2018-04-28T15:59:48.725Z,30.90
2018-04-28T16:02:14.565Z,30.56
2018-04-28T16:04:40.428Z,30.43
2018-04-28T16:07:06.279Z,32.13
2018-04-28T16:09:32.216Z,32.71
2018-04-28T16:11:58.067Z,34.43
2018-04-28T16:14:23.922Z,34.29
2018-04-28T16:16:49.765Z,34.34
2018-04-28T16:19:15.624Z,35.15
2018-04-28T16:21:41.512Z,34.54
2018-04-28T16:24:07.356Z,36.38
2018-04-28T16:26:33.229Z,36.39
2018-04-28T16:31:31.771Z,39.09
2018-04-28T16:33:57.625Z,38.38
2018-04-28T16:36:23.493Z,39.13
2018-04-28T16:38:49.381Z,40.33
2018-04-28T16:41:15.217Z,40.08
2018-04-28T16:43:41.053Z,38.62
2018-04-28T16:46:06.887Z,39.87
2018-04-28T16:48:32.771Z,40.50
2018-04-28T16:50:58.629Z,40.03
2018-04-28T16:53:24.508Z,39.83
2018-04-28T16:55:50.387Z,40.31
2018-04-28T16:58:16.304Z,41.47
2018-04-28T17:00:42.138Z,41.38
2018-04-28T17:03:07.992Z,41.47
2018-04-28T17:05:33.873Z,41.44
2018-04-28T17:07:59.727Z,40.45
2018-04-28T17:10:25.597Z,41.19
2018-04-28T17:12:51.463Z,41.08
2018-04-28T17:15:17.360Z,41.71
2018-04-28T17:17:52.520Z,41.99
2018-04-28T17:20:18.421Z,42.27
2018-04-28T17:22:44.296Z,42.41
2018-04-28T17:25:10.161Z,42.70
2018-04-28T17:27:36.026Z,42.77
2018-04-28T17:30:01.889Z,42.86
2018-04-28T17:32:27.767Z,45.09
2018-04-28T17:34:53.641Z,46.90
2018-04-28T17:37:19.551Z,46.21
2018-04-28T17:39:45.373Z,46.20
2018-04-28T17:42:11.214Z,46.01
2018-04-28T17:44:37.084Z,46.91
2018-04-28T17:47:02.961Z,47.87
2018-04-28T17:49:28.808Z,47.97
2018-04-28T17:51:54.672Z,48.65
2018-04-28T17:54:20.533Z,48.31
2018-04-28T17:56:46.381Z,48.00
2018-04-28T17:59:12.274Z,49.31
2018-04-28T18:01:38.161Z,49.36
2018-04-28T18:04:04.044Z,50.24
2018-04-28T18:06:29.888Z,50.64
2018-04-28T18:08:55.759Z,50.74
2018-04-28T18:11:21.644Z,50.51
2018-04-28T18:13:47.530Z,51.18
2018-04-28T18:16:13.410Z,49.34
2018-04-28T18:18:39.301Z,51.27
2018-04-28T18:21:05.191Z,51.15
2018-04-28T18:23:31.049Z,51.70
2018-04-28T18:25:56.926Z,52.89
2018-04-28T18:28:22.786Z,53.41
2018-04-28T18:30:48.628Z,54.09
2018-04-28T18:33:14.513Z,54.39
2018-04-28T18:35:40.394Z,54.81
2018-04-28T18:38:06.268Z,56.86
2018-04-28T18:40:32.135Z,57.45
2018-04-28T18:42:58.010Z,57.68
2018-04-28T18:45:23.878Z,58.21
2018-04-28T18:47:49.745Z,59.50
2018-04-28T18:50:15.576Z,60.03
2018-04-28T18:52:41.445Z,60.02
2018-04-28T18:55:07.314Z,58.92
2018-04-28T18:57:33.136Z,59.35
2018-04-28T18:59:59.012Z,59.34
2018-04-28T19:02:24.873Z,57.91
2018-04-28T19:04:50.749Z,57.61
2018-04-28T19:07:16.604Z,56.43
2018-04-28T19:09:42.488Z,56.88
2018-04-28T19:12:08.354Z,58.79
2018-04-28T19:14:34.265Z,59.87
2018-04-28T19:17:00.100Z,58.57
2018-04-28T19:19:25.949Z,60.73
2018-04-28T19:21:51.837Z,60.11
2018-04-28T19:24:17.733Z,61.41
2018-04-28T19:26:43.598Z,62.60
2018-04-28T19:29:09.455Z,62.58
2018-04-28T19:31:35.338Z,63.06
2018-04-28T19:34:01.229Z,62.85
2018-04-28T19:36:27.096Z,62.71
2018-04-28T19:38:59.868Z,62.23
2018-04-28T19:41:25.801Z,62.03
2018-04-28T19:43:51.735Z,61.60
2018-04-28T19:46:17.617Z,61.44
2018-04-28T19:48:43.549Z,61.72
2018-04-28T19:51:09.387Z,61.14
2018-04-28T19:53:35.253Z,61.03
2018-04-28T19:56:01.183Z,60.70
2018-04-28T19:58:27.065Z,61.31
2018-04-28T20:00:52.948Z,60.49
2018-04-28T20:03:18.864Z,61.57
2018-04-28T20:05:44.754Z,62.32
2018-04-28T20:08:10.617Z,62.36
2018-04-28T20:10:36.484Z,63.06
2018-04-28T20:13:02.359Z,64.02
2018-04-28T20:15:28.188Z,64.86
2018-04-28T20:17:54.048Z,65.28
2018-04-28T20:20:19.912Z,65.05
2018-04-28T20:22:58.022Z,65.31
2018-04-28T20:25:23.926Z,65.60
2018-04-28T20:27:49.793Z,64.31
2018-04-28T20:30:15.784Z,64.19
2018-04-28T20:32:41.579Z,63.52
2018-04-28T20:35:07.456Z,62.92
2018-04-28T20:37:33.296Z,62.86
2018-04-28T20:39:59.173Z,62.44
2018-04-28T20:42:25.042Z,62.25
2018-04-28T20:44:50.898Z,62.97
2018-04-28T20:47:16.758Z,63.39
2018-04-28T20:49:42.653Z,63.96
2018-04-28T20:52:08.489Z,64.21
2018-04-28T20:54:34.354Z,64.52
2018-04-28T20:57:00.248Z,65.65
2018-04-28T20:59:26.156Z,66.11
2018-04-28T21:01:51.975Z,66.15
2018-04-28T21:04:17.806Z,66.22
2018-04-28T21:06:43.660Z,65.91
2018-04-28T21:09:09.507Z,65.99
2018-04-28T21:11:35.407Z,66.16
2018-04-28T21:14:01.315Z,65.96
2018-04-28T21:16:27.179Z,66.10
2018-04-28T21:18:53.064Z,67.23
2018-04-28T21:21:18.909Z,67.72
2018-04-28T21:23:44.782Z,68.24
2018-04-28T21:26:10.724Z,69.85
2018-04-28T21:28:36.567Z,69.05
2018-04-28T21:31:02.416Z,68.63
2018-04-28T21:33:28.298Z,69.57
2018-04-28T21:35:54.182Z,69.45
2018-04-28T21:38:20.035Z,70.00
2018-04-28T21:40:45.888Z,69.66
2018-04-28T21:43:11.749Z,69.53
2018-04-28T21:45:37.612Z,69.08
2018-04-28T21:48:03.791Z,68.87
2018-04-28T21:50:29.927Z,68.71
2018-04-28T21:52:55.766Z,68.77
2018-04-28T21:55:21.634Z,68.64
2018-04-28T21:57:47.518Z,68.53
2018-04-28T22:00:13.387Z,69.13
2018-04-28T22:02:39.303Z,68.15
2018-04-28T22:05:05.161Z,69.50
2018-04-28T22:07:31.059Z,69.77
2018-04-28T22:09:56.936Z,69.71
2018-04-28T22:12:22.831Z,70.30
2018-04-28T22:14:48.678Z,70.07
2018-04-28T22:17:14.537Z,70.25
2018-04-28T22:19:40.422Z,70.42
2018-04-28T22:22:06.281Z,70.92
2018-04-28T22:24:32.157Z,71.84
2018-04-28T22:26:58.043Z,72.50
2018-04-28T22:29:23.869Z,73.02
2018-04-28T22:31:49.760Z,73.64
2018-04-28T22:34:15.592Z,72.91
2018-04-28T22:36:41.445Z,73.01
2018-04-28T22:39:07.273Z,73.10
2018-04-28T22:41:33.136Z,73.68
2018-04-28T22:43:59.048Z,74.70
2018-04-28T22:46:24.892Z,73.80
2018-04-28T22:48:50.806Z,72.62
2018-04-28T22:51:16.638Z,72.01
2018-04-28T22:53:42.488Z,71.66
2018-04-28T22:56:08.367Z,72.21
2018-04-28T22:58:34.216Z,71.94
2018-04-28T23:01:00.139Z,73.01
2018-04-28T23:03:26.052Z,72.91
2018-04-28T23:05:51.976Z,72.60
2018-04-28T23:08:17.914Z,72.64
2018-04-28T23:10:43.749Z,72.62
2018-04-28T23:13:09.584Z,72.19
2018-04-28T23:15:35.456Z,72.04
2018-04-28T23:18:01.342Z,73.42
2018-04-28T23:20:27.194Z,73.51
2018-04-28T23:22:53.074Z,73.04
2018-04-28T23:25:18.964Z,72.43
2018-04-28T23:27:44.848Z,74.34
2018-04-28T23:30:10.696Z,76.17
2018-04-28T23:32:36.580Z,76.86
2018-04-28T23:35:02.425Z,76.18
2018-04-28T23:37:28.314Z,76.03
2018-04-28T23:39:54.192Z,76.18
2018-04-28T23:42:20.099Z,75.52
2018-04-28T23:44:45.965Z,75.45
2018-04-28T23:47:11.844Z,75.88
2018-04-28T23:49:37.713Z,75.99
2018-04-28T23:52:03.592Z,75.83
2018-04-28T23:54:29.474Z,75.89
2018-04-28T23:56:55.314Z,75.46
2018-04-28T23:59:21.237Z,75.08
